sensor_id;sensor_type;location;lat;lon;timestamp;pressure;altitude;pressure_sealevel;temperature;humidity
9521;BME280;4798;41.574;23.734;2022-09-28T00:01:16;94405.03;;;17.10;100.00
9521;BME280;4798;41.574;23.734;2022-09-28T00:03:47;94476.69;;;17.58;100.00
9521;BME280;4798;41.574;23.734;2022-09-28T00:06:17;94492.69;;;17.67;100.00
9521;BME280;4798;41.574;23.734;2022-09-28T00:08:46;94480.50;;;17.69;100.00
9521;BME280;4798;41.574;23.734;2022-09-28T00:11:17;94468.25;;;17.81;100.00
9521;BME280;4798;41.574;23.734;2022-09-28T00:13:48;94382.88;;;17.34;100.00
9521;BME280;4798;41.574;23.734;2022-09-28T00:16:21;94463.44;;;18.10;100.00
9521;BME280;4798;41.574;23.734;2022-09-28T00:18:51;94451.13;;;18.21;100.00
9521;BME280;4798;41.574;23.734;2022-09-28T00:21:20;94468.69;;;17.95;100.00
9521;BME280;4798;41.574;23.734;2022-09-28T00:23:51;94466.75;;;17.14;100.00
9521;BME280;4798;41.574;23.734;2022-09-28T00:26:38;94476.06;;;17.41;100.00
9521;BME280;4798;41.574;23.734;2022-09-28T00:29:14;94473.78;;;17.63;100.00
9521;BME280;4798;41.574;23.734;2022-09-28T00:31:43;94439.44;;;17.65;100.00
9521;BME280;4798;41.574;23.734;2022-09-28T00:34:13;94471.59;;;17.90;100.00
9521;BME280;4798;41.574;23.734;2022-09-28T00:36:44;94461.06;;;17.97;100.00
9521;BME280;4798;41.574;23.734;2022-09-28T00:39:14;94454.94;;;17.84;100.00
9521;BME280;4798;41.574;23.734;2022-09-28T00:41:43;94454.84;;;17.93;100.00
9521;BME280;4798;41.574;23.734;2022-09-28T00:44:33;94455.72;;;17.60;100.00
9521;BME280;4798;41.574;23.734;2022-09-28T00:47:07;94461.75;;;17.82;100.00
9521;BME280;4798;41.574;23.734;2022-09-28T00:49:40;94464.91;;;17.96;100.00
9521;BME280;4798;41.574;23.734;2022-09-28T00:52:11;94377.69;;;17.62;100.00
9521;BME280;4798;41.574;23.734;2022-09-28T00:54:42;94449.91;;;18.19;100.00
9521;BME280;4798;41.574;23.734;2022-09-28T00:57:12;94446.88;;;18.20;100.00
9521;BME280;4798;41.574;23.734;2022-09-28T00:59:41;94389.13;;;17.38;100.00
9521;BME280;4798;41.574;23.734;2022-09-28T01:02:09;94462.63;;;17.73;100.00
9521;BME280;4798;41.574;23.734;2022-09-28T01:04:39;94446.94;;;17.39;100.00
9521;BME280;4798;41.574;23.734;2022-09-28T01:07:09;94470.66;;;17.61;100.00
9521;BME280;4798;41.574;23.734;2022-09-28T01:09:38;94474.59;;;17.31;100.00
9521;BME280;4798;41.574;23.734;2022-09-28T01:12:07;94467.06;;;17.45;100.00
9521;BME280;4798;41.574;23.734;2022-09-28T01:14:35;94457.28;;;17.61;100.00
9521;BME280;4798;41.574;23.734;2022-09-28T01:17:06;94455.50;;;17.77;100.00
9521;BME280;4798;41.574;23.734;2022-09-28T01:23:03;94465.00;;;18.11;100.00
9521;BME280;4798;41.574;23.734;2022-09-28T01:25:40;94467.69;;;17.87;100.00
9521;BME280;4798;41.574;23.734;2022-09-28T01:28:15;94461.97;;;17.76;100.00
9521;BME280;4798;41.574;23.734;2022-09-28T01:30:47;94464.38;;;17.45;100.00
9521;BME280;4798;41.574;23.734;2022-09-28T01:33:21;94462.66;;;17.86;100.00
9521;BME280;4798;41.574;23.734;2022-09-28T01:35:54;94452.59;;;17.83;100.00
9521;BME280;4798;41.574;23.734;2022-09-28T01:38:29;94464.78;;;17.68;100.00
9521;BME280;4798;41.574;23.734;2022-09-28T01:41:00;94465.44;;;17.53;100.00
9521;BME280;4798;41.574;23.734;2022-09-28T01:43:34;94470.56;;;17.70;100.00
9521;BME280;4798;41.574;23.734;2022-09-28T01:46:10;94471.16;;;17.88;100.00
9521;BME280;4798;41.574;23.734;2022-09-28T01:48:44;94465.34;;;17.86;100.00
9521;BME280;4798;41.574;23.734;2022-09-28T01:51:17;94469.19;;;17.52;100.00
9521;BME280;4798;41.574;23.734;2022-09-28T01:53:49;94479.56;;;17.08;100.00
9521;BME280;4798;41.574;23.734;2022-09-28T01:56:25;94477.31;;;17.43;100.00
9521;BME280;4798;41.574;23.734;2022-09-28T01:58:59;94472.91;;;17.59;100.00
9521;BME280;4798;41.574;23.734;2022-09-28T02:01:35;94477.75;;;17.78;100.00
9521;BME280;4798;41.574;23.734;2022-09-28T02:04:07;94475.16;;;17.69;100.00
9521;BME280;4798;41.574;23.734;2022-09-28T02:06:45;94470.81;;;17.77;100.00
9521;BME280;4798;41.574;23.734;2022-09-28T02:09:17;94472.91;;;17.71;100.00
9521;BME280;4798;41.574;23.734;2022-09-28T02:11:51;94494.13;;;17.20;100.00
9521;BME280;4798;41.574;23.734;2022-09-28T02:14:24;94490.38;;;17.45;100.00
9521;BME280;4798;41.574;23.734;2022-09-28T02:16:54;94501.00;;;16.88;100.00
9521;BME280;4798;41.574;23.734;2022-09-28T02:19:25;94513.53;;;16.75;100.00
9521;BME280;4798;41.574;23.734;2022-09-28T02:21:58;94507.72;;;16.52;100.00
9521;BME280;4798;41.574;23.734;2022-09-28T02:24:35;94512.69;;;16.83;100.00
9521;BME280;4798;41.574;23.734;2022-09-28T02:27:09;94497.84;;;17.39;100.00
9521;BME280;4798;41.574;23.734;2022-09-28T02:29:42;94490.66;;;17.19;100.00
9521;BME280;4798;41.574;23.734;2022-09-28T02:32:10;94489.44;;;16.96;100.00
9521;BME280;4798;41.574;23.734;2022-09-28T02:34:38;94472.72;;;17.32;100.00
9521;BME280;4798;41.574;23.734;2022-09-28T02:37:07;94469.22;;;17.64;100.00
9521;BME280;4798;41.574;23.734;2022-09-28T02:39:35;94476.94;;;17.77;100.00
9521;BME280;4798;41.574;23.734;2022-09-28T02:42:10;94476.72;;;17.95;100.00
9521;BME280;4798;41.574;23.734;2022-09-28T02:44:57;94470.44;;;17.66;100.00
9521;BME280;4798;41.574;23.734;2022-09-28T02:47:40;94472.72;;;17.44;100.00
9521;BME280;4798;41.574;23.734;2022-09-28T02:50:19;94419.50;;;17.30;100.00
9521;BME280;4798;41.574;23.734;2022-09-28T02:53:14;94468.34;;;17.72;100.00
9521;BME280;4798;41.574;23.734;2022-09-28T02:55:59;94466.44;;;17.85;100.00
9521;BME280;4798;41.574;23.734;2022-09-28T02:58:37;94463.31;;;17.70;100.00
9521;BME280;4798;41.574;23.734;2022-09-28T03:01:18;94466.00;;;17.70;100.00
9521;BME280;4798;41.574;23.734;2022-09-28T03:03:53;94457.97;;;17.83;100.00
9521;BME280;4798;41.574;23.734;2022-09-28T03:06:29;94460.31;;;17.84;100.00
9521;BME280;4798;41.574;23.734;2022-09-28T03:09:02;94468.56;;;17.79;100.00
9521;BME280;4798;41.574;23.734;2022-09-28T03:11:36;94479.41;;;17.83;100.00
9521;BME280;4798;41.574;23.734;2022-09-28T03:14:06;94479.53;;;17.41;100.00
9521;BME280;4798;41.574;23.734;2022-09-28T03:16:36;94481.19;;;17.34;100.00
9521;BME280;4798;41.574;23.734;2022-09-28T03:19:04;94485.91;;;17.49;100.00
9521;BME280;4798;41.574;23.734;2022-09-28T03:21:32;94493.63;;;17.50;100.00
9521;BME280;4798;41.574;23.734;2022-09-28T03:24:01;94492.34;;;17.36;100.00
9521;BME280;4798;41.574;23.734;2022-09-28T03:26:31;94486.25;;;17.47;100.00
9521;BME280;4798;41.574;23.734;2022-09-28T03:29:00;94493.56;;;17.59;100.00
9521;BME280;4798;41.574;23.734;2022-09-28T03:31:28;94473.81;;;17.31;100.00
9521;BME280;4798;41.574;23.734;2022-09-28T03:33:58;94495.34;;;17.55;100.00
9521;BME280;4798;41.574;23.734;2022-09-28T03:36:26;94500.16;;;16.96;100.00
9521;BME280;4798;41.574;23.734;2022-09-28T03:38:55;94516.06;;;16.51;100.00
9521;BME280;4798;41.574;23.734;2022-09-28T03:41:25;94510.75;;;16.42;100.00
9521;BME280;4798;41.574;23.734;2022-09-28T03:43:54;94510.53;;;16.27;100.00
9521;BME280;4798;41.574;23.734;2022-09-28T03:46:23;94323.19;;;15.20;100.00
9521;BME280;4798;41.574;23.734;2022-09-28T03:48:51;94501.41;;;16.78;100.00
9521;BME280;4798;41.574;23.734;2022-09-28T03:51:21;94507.34;;;17.04;100.00
9521;BME280;4798;41.574;23.734;2022-09-28T03:53:49;94494.94;;;16.99;100.00
9521;BME280;4798;41.574;23.734;2022-09-28T03:56:17;94501.94;;;16.71;100.00
9521;BME280;4798;41.574;23.734;2022-09-28T03:58:45;94503.56;;;17.05;100.00
9521;BME280;4798;41.574;23.734;2022-09-28T04:01:14;94321.66;;;16.10;100.00
9521;BME280;4798;41.574;23.734;2022-09-28T04:03:44;94502.84;;;17.41;100.00
9521;BME280;4798;41.574;23.734;2022-09-28T04:06:13;94438.06;;;17.02;100.00
9521;BME280;4798;41.574;23.734;2022-09-28T04:08:43;94503.13;;;17.48;100.00
9521;BME280;4798;41.574;23.734;2022-09-28T04:11:11;94501.06;;;17.33;100.00
9521;BME280;4798;41.574;23.734;2022-09-28T04:13:39;94518.38;;;17.35;100.00
9521;BME280;4798;41.574;23.734;2022-09-28T04:16:09;94529.53;;;17.04;100.00
9521;BME280;4798;41.574;23.734;2022-09-28T04:18:37;94528.41;;;17.05;100.00
9521;BME280;4798;41.574;23.734;2022-09-28T04:21:10;94531.63;;;17.32;100.00
9521;BME280;4798;41.574;23.734;2022-09-28T04:23:38;94526.72;;;17.54;100.00
9521;BME280;4798;41.574;23.734;2022-09-28T04:26:14;94527.72;;;17.29;100.00
9521;BME280;4798;41.574;23.734;2022-09-28T04:28:43;94518.19;;;16.87;100.00
9521;BME280;4798;41.574;23.734;2022-09-28T04:31:37;94476.41;;;16.74;100.00
9521;BME280;4798;41.574;23.734;2022-09-28T04:34:05;94521.63;;;17.41;100.00
9521;BME280;4798;41.574;23.734;2022-09-28T04:36:34;94517.06;;;16.88;100.00
9521;BME280;4798;41.574;23.734;2022-09-28T04:39:02;94533.47;;;16.86;100.00
9521;BME280;4798;41.574;23.734;2022-09-28T04:41:32;94528.19;;;17.10;100.00
9521;BME280;4798;41.574;23.734;2022-09-28T04:44:01;94438.13;;;16.94;100.00
9521;BME280;4798;41.574;23.734;2022-09-28T04:46:30;94528.88;;;17.40;100.00
9521;BME280;4798;41.574;23.734;2022-09-28T04:48:58;94534.31;;;17.52;100.00
9521;BME280;4798;41.574;23.734;2022-09-28T04:51:29;94534.31;;;17.64;100.00
9521;BME280;4798;41.574;23.734;2022-09-28T04:53:58;94539.25;;;17.62;100.00
9521;BME280;4798;41.574;23.734;2022-09-28T04:56:26;94533.66;;;17.35;100.00
9521;BME280;4798;41.574;23.734;2022-09-28T04:58:56;94537.78;;;17.65;100.00
9521;BME280;4798;41.574;23.734;2022-09-28T05:01:24;94531.66;;;17.76;100.00
9521;BME280;4798;41.574;23.734;2022-09-28T05:03:53;94531.34;;;17.78;100.00
9521;BME280;4798;41.574;23.734;2022-09-28T05:06:22;94529.75;;;17.77;100.00
9521;BME280;4798;41.574;23.734;2022-09-28T05:08:53;94535.69;;;17.83;100.00
9521;BME280;4798;41.574;23.734;2022-09-28T05:11:23;94534.41;;;17.56;100.00
9521;BME280;4798;41.574;23.734;2022-09-28T05:13:51;94529.69;;;17.86;100.00
9521;BME280;4798;41.574;23.734;2022-09-28T05:16:21;94528.00;;;17.48;100.00
9521;BME280;4798;41.574;23.734;2022-09-28T05:18:54;94540.25;;;17.70;100.00
9521;BME280;4798;41.574;23.734;2022-09-28T05:21:25;94541.78;;;17.59;100.00
9521;BME280;4798;41.574;23.734;2022-09-28T05:23:55;94537.06;;;17.23;100.00
9521;BME280;4798;41.574;23.734;2022-09-28T05:26:24;94545.19;;;17.80;100.00
9521;BME280;4798;41.574;23.734;2022-09-28T05:28:52;94556.22;;;17.66;100.00
9521;BME280;4798;41.574;23.734;2022-09-28T05:31:22;94562.88;;;17.28;100.00
9521;BME280;4798;41.574;23.734;2022-09-28T05:33:53;94562.56;;;17.08;100.00
9521;BME280;4798;41.574;23.734;2022-09-28T05:36:21;94565.03;;;17.67;100.00
9521;BME280;4798;41.574;23.734;2022-09-28T05:38:49;94553.03;;;17.97;100.00
9521;BME280;4798;41.574;23.734;2022-09-28T05:41:18;94567.53;;;17.51;100.00
9521;BME280;4798;41.574;23.734;2022-09-28T05:43:46;94528.88;;;17.07;100.00
9521;BME280;4798;41.574;23.734;2022-09-28T05:46:14;94557.22;;;17.41;100.00
9521;BME280;4798;41.574;23.734;2022-09-28T05:48:45;94564.84;;;17.84;100.00
9521;BME280;4798;41.574;23.734;2022-09-28T05:51:14;94561.94;;;17.89;100.00
9521;BME280;4798;41.574;23.734;2022-09-28T05:53:42;94531.31;;;17.33;100.00
9521;BME280;4798;41.574;23.734;2022-09-28T05:56:10;94559.00;;;17.37;100.00
9521;BME280;4798;41.574;23.734;2022-09-28T05:58:39;94561.84;;;17.98;100.00
9521;BME280;4798;41.574;23.734;2022-09-28T06:01:07;94498.38;;;17.65;100.00
9521;BME280;4798;41.574;23.734;2022-09-28T06:03:35;94553.81;;;17.86;100.00
9521;BME280;4798;41.574;23.734;2022-09-28T06:06:08;94521.97;;;17.51;100.00
9521;BME280;4798;41.574;23.734;2022-09-28T06:08:36;94575.63;;;18.08;100.00
9521;BME280;4798;41.574;23.734;2022-09-28T06:11:10;94557.19;;;18.19;100.00
9521;BME280;4798;41.574;23.734;2022-09-28T06:13:39;94562.78;;;18.50;100.00
9521;BME280;4798;41.574;23.734;2022-09-28T06:16:08;94583.13;;;18.39;100.00
9521;BME280;4798;41.574;23.734;2022-09-28T06:18:45;94587.13;;;18.21;100.00
9521;BME280;4798;41.574;23.734;2022-09-28T06:21:14;94581.66;;;18.29;100.00
9521;BME280;4798;41.574;23.734;2022-09-28T06:23:43;94584.22;;;18.14;100.00
9521;BME280;4798;41.574;23.734;2022-09-28T06:26:15;94578.41;;;18.12;100.00
9521;BME280;4798;41.574;23.734;2022-09-28T06:28:44;94575.75;;;18.48;100.00
9521;BME280;4798;41.574;23.734;2022-09-28T06:31:12;94576.75;;;18.56;100.00
9521;BME280;4798;41.574;23.734;2022-09-28T06:33:41;94574.38;;;18.42;100.00
9521;BME280;4798;41.574;23.734;2022-09-28T06:36:10;94579.75;;;18.18;100.00
9521;BME280;4798;41.574;23.734;2022-09-28T06:38:40;94549.69;;;18.36;100.00
9521;BME280;4798;41.574;23.734;2022-09-28T06:41:10;94568.59;;;18.64;100.00
9521;BME280;4798;41.574;23.734;2022-09-28T06:43:38;94572.72;;;18.74;100.00
9521;BME280;4798;41.574;23.734;2022-09-28T06:46:07;94555.47;;;18.75;100.00
9521;BME280;4798;41.574;23.734;2022-09-28T06:48:36;94526.28;;;17.64;100.00
9521;BME280;4798;41.574;23.734;2022-09-28T06:51:04;94581.50;;;18.02;100.00
9521;BME280;4798;41.574;23.734;2022-09-28T06:53:33;94533.59;;;18.12;100.00
9521;BME280;4798;41.574;23.734;2022-09-28T06:56:02;94582.66;;;18.25;100.00
9521;BME280;4798;41.574;23.734;2022-09-28T06:58:32;94583.22;;;18.42;100.00
9521;BME280;4798;41.574;23.734;2022-09-28T07:01:01;94411.06;;;16.75;100.00
9521;BME280;4798;41.574;23.734;2022-09-28T07:03:30;94583.00;;;18.11;100.00
9521;BME280;4798;41.574;23.734;2022-09-28T07:05:58;94527.13;;;18.13;100.00
9521;BME280;4798;41.574;23.734;2022-09-28T07:08:26;94581.22;;;18.27;100.00
9521;BME280;4798;41.574;23.734;2022-09-28T07:10:55;94583.47;;;18.50;100.00
9521;BME280;4798;41.574;23.734;2022-09-28T07:13:26;94569.81;;;18.55;100.00
9521;BME280;4798;41.574;23.734;2022-09-28T07:16:15;94571.69;;;18.78;100.00
9521;BME280;4798;41.574;23.734;2022-09-28T07:18:48;94470.00;;;18.25;100.00
9521;BME280;4798;41.574;23.734;2022-09-28T07:21:16;94564.97;;;19.24;100.00
9521;BME280;4798;41.574;23.734;2022-09-28T07:23:55;94554.13;;;19.76;100.00
9521;BME280;4798;41.574;23.734;2022-09-28T07:26:23;94565.69;;;19.49;100.00
9521;BME280;4798;41.574;23.734;2022-09-28T07:28:53;94565.28;;;19.35;100.00
9521;BME280;4798;41.574;23.734;2022-09-28T07:31:22;94568.06;;;18.98;100.00
9521;BME280;4798;41.574;23.734;2022-09-28T07:33:52;94571.69;;;19.18;100.00
9521;BME280;4798;41.574;23.734;2022-09-28T07:36:22;94547.91;;;19.44;100.00
9521;BME280;4798;41.574;23.734;2022-09-28T07:38:50;94527.72;;;19.66;100.00
9521;BME280;4798;41.574;23.734;2022-09-28T07:41:18;94569.53;;;19.63;100.00
9521;BME280;4798;41.574;23.734;2022-09-28T07:44:00;94495.41;;;18.79;100.00
9521;BME280;4798;41.574;23.734;2022-09-28T07:46:32;94553.69;;;19.74;100.00
9521;BME280;4798;41.574;23.734;2022-09-28T07:49:00;94556.81;;;20.54;100.00
9521;BME280;4798;41.574;23.734;2022-09-28T07:51:37;94492.69;;;20.09;100.00
9521;BME280;4798;41.574;23.734;2022-09-28T07:54:05;94570.19;;;20.19;100.00
9521;BME280;4798;41.574;23.734;2022-09-28T07:56:34;94573.88;;;20.43;100.00
9521;BME280;4798;41.574;23.734;2022-09-28T07:59:03;94568.78;;;20.72;100.00
9521;BME280;4798;41.574;23.734;2022-09-28T08:01:31;94566.91;;;20.42;100.00
9521;BME280;4798;41.574;23.734;2022-09-28T08:04:00;94568.97;;;21.52;100.00
9521;BME280;4798;41.574;23.734;2022-09-28T08:06:29;94489.25;;;21.13;100.00
9521;BME280;4798;41.574;23.734;2022-09-28T08:08:57;94565.53;;;21.75;100.00
9521;BME280;4798;41.574;23.734;2022-09-28T08:11:27;94573.47;;;22.55;95.19
9521;BME280;4798;41.574;23.734;2022-09-28T08:13:56;94572.00;;;21.89;96.37
9521;BME280;4798;41.574;23.734;2022-09-28T08:16:27;94579.31;;;22.11;98.21
9521;BME280;4798;41.574;23.734;2022-09-28T08:18:56;94577.53;;;21.58;98.41
9521;BME280;4798;41.574;23.734;2022-09-28T08:21:24;94564.38;;;22.89;94.43
9521;BME280;4798;41.574;23.734;2022-09-28T08:24:10;94563.53;;;24.11;84.97
9521;BME280;4798;41.574;23.734;2022-09-28T08:26:38;94575.00;;;24.38;81.39
9521;BME280;4798;41.574;23.734;2022-09-28T08:29:07;94559.22;;;24.98;75.36
9521;BME280;4798;41.574;23.734;2022-09-28T08:31:36;94563.06;;;24.93;76.34
9521;BME280;4798;41.574;23.734;2022-09-28T08:34:05;94563.13;;;25.83;74.53
9521;BME280;4798;41.574;23.734;2022-09-28T08:36:33;94560.19;;;25.41;72.28
9521;BME280;4798;41.574;23.734;2022-09-28T08:39:01;94564.50;;;25.45;70.53
9521;BME280;4798;41.574;23.734;2022-09-28T08:41:37;94536.03;;;26.15;70.41
9521;BME280;4798;41.574;23.734;2022-09-28T08:44:12;94546.16;;;26.35;68.06
9521;BME280;4798;41.574;23.734;2022-09-28T08:46:45;94544.97;;;26.47;68.98
9521;BME280;4798;41.574;23.734;2022-09-28T08:49:17;94543.78;;;26.90;65.42
9521;BME280;4798;41.574;23.734;2022-09-28T08:51:59;94411.78;;;26.58;63.32
9521;BME280;4798;41.574;23.734;2022-09-28T08:54:36;94547.75;;;27.83;62.68
9521;BME280;4798;41.574;23.734;2022-09-28T08:57:13;94542.72;;;27.78;63.20
9521;BME280;4798;41.574;23.734;2022-09-28T08:59:49;94545.75;;;26.93;62.90
9521;BME280;4798;41.574;23.734;2022-09-28T09:02:22;94545.72;;;28.63;58.93
9521;BME280;4798;41.574;23.734;2022-09-28T09:04:53;94532.75;;;28.74;58.16
9521;BME280;4798;41.574;23.734;2022-09-28T09:10:40;94523.03;;;29.48;56.43
9521;BME280;4798;41.574;23.734;2022-09-28T09:13:39;94510.22;;;30.05;56.95
9521;BME280;4798;41.574;23.734;2022-09-28T09:16:16;94504.25;;;28.82;54.69
9521;BME280;4798;41.574;23.734;2022-09-28T09:18:54;94513.84;;;28.53;55.74
9521;BME280;4798;41.574;23.734;2022-09-28T09:21:37;94514.84;;;28.73;56.55
9521;BME280;4798;41.574;23.734;2022-09-28T09:24:17;94518.56;;;28.90;54.41
9521;BME280;4798;41.574;23.734;2022-09-28T09:27:04;94465.38;;;29.73;53.23
9521;BME280;4798;41.574;23.734;2022-09-28T09:29:47;94518.72;;;28.76;54.55
9521;BME280;4798;41.574;23.734;2022-09-28T09:32:27;94518.00;;;30.57;51.40
9521;BME280;4798;41.574;23.734;2022-09-28T09:35:35;94502.69;;;29.19;54.04
9521;BME280;4798;41.574;23.734;2022-09-28T09:38:21;94491.66;;;30.66;53.32
9521;BME280;4798;41.574;23.734;2022-09-28T09:41:04;94495.00;;;30.04;54.48
9521;BME280;4798;41.574;23.734;2022-09-28T09:44:03;94496.66;;;30.22;52.92
9521;BME280;4798;41.574;23.734;2022-09-28T09:46:39;94504.69;;;30.82;53.10
9521;BME280;4798;41.574;23.734;2022-09-28T09:49:14;94496.06;;;31.26;51.82
9521;BME280;4798;41.574;23.734;2022-09-28T09:51:50;94498.97;;;31.94;50.47
9521;BME280;4798;41.574;23.734;2022-09-28T09:54:24;94504.69;;;31.84;49.13
9521;BME280;4798;41.574;23.734;2022-09-28T09:56:57;94497.78;;;30.97;47.83
9521;BME280;4798;41.574;23.734;2022-09-28T09:59:31;94460.16;;;30.08;48.81
9521;BME280;4798;41.574;23.734;2022-09-28T10:02:06;94496.53;;;31.45;49.81
9521;BME280;4798;41.574;23.734;2022-09-28T10:04:40;94475.06;;;31.39;47.71
9521;BME280;4798;41.574;23.734;2022-09-28T10:07:16;94478.88;;;31.46;49.47
9521;BME280;4798;41.574;23.734;2022-09-28T10:09:48;94486.25;;;30.86;49.03
9521;BME280;4798;41.574;23.734;2022-09-28T10:12:20;94484.22;;;32.89;49.30
9521;BME280;4798;41.574;23.734;2022-09-28T10:14:49;94479.09;;;30.69;48.03
9521;BME280;4798;41.574;23.734;2022-09-28T10:17:18;94475.78;;;31.24;46.83
9521;BME280;4798;41.574;23.734;2022-09-28T10:19:53;94470.50;;;32.24;44.87
9521;BME280;4798;41.574;23.734;2022-09-28T10:22:25;94464.50;;;32.29;46.45
9521;BME280;4798;41.574;23.734;2022-09-28T10:24:54;94454.16;;;32.53;47.21
9521;BME280;4798;41.574;23.734;2022-09-28T10:27:27;94456.59;;;31.99;42.58
9521;BME280;4798;41.574;23.734;2022-09-28T10:29:59;94444.72;;;31.70;46.14
9521;BME280;4798;41.574;23.734;2022-09-28T10:32:36;94448.97;;;31.71;47.24
9521;BME280;4798;41.574;23.734;2022-09-28T10:35:19;94341.22;;;31.41;42.28
9521;BME280;4798;41.574;23.734;2022-09-28T10:37:53;94443.41;;;32.42;37.10
9521;BME280;4798;41.574;23.734;2022-09-28T10:40:28;94440.63;;;33.19;35.01
9521;BME280;4798;41.574;23.734;2022-09-28T10:43:00;94430.63;;;32.03;36.18
9521;BME280;4798;41.574;23.734;2022-09-28T10:45:33;94414.09;;;32.39;34.17
9521;BME280;4798;41.574;23.734;2022-09-28T10:48:05;94421.00;;;33.34;34.25
9521;BME280;4798;41.574;23.734;2022-09-28T10:50:41;94422.56;;;31.05;33.96
9521;BME280;4798;41.574;23.734;2022-09-28T10:53:16;94422.66;;;32.41;33.67
9521;BME280;4798;41.574;23.734;2022-09-28T10:55:57;94415.94;;;33.32;33.89
9521;BME280;4798;41.574;23.734;2022-09-28T10:58:28;94414.13;;;34.42;31.17
9521;BME280;4798;41.574;23.734;2022-09-28T11:01:03;94414.94;;;32.69;33.15
9521;BME280;4798;41.574;23.734;2022-09-28T11:03:46;94403.13;;;32.55;31.78
9521;BME280;4798;41.574;23.734;2022-09-28T11:06:23;94400.50;;;32.81;33.11
9521;BME280;4798;41.574;23.734;2022-09-28T11:08:54;94399.88;;;33.31;31.54
9521;BME280;4798;41.574;23.734;2022-09-28T11:11:24;94385.88;;;33.54;31.15
9521;BME280;4798;41.574;23.734;2022-09-28T11:13:55;94400.00;;;33.40;30.88
9521;BME280;4798;41.574;23.734;2022-09-28T11:16:28;94397.75;;;33.76;32.14
9521;BME280;4798;41.574;23.734;2022-09-28T11:18:57;94392.63;;;33.11;30.29
9521;BME280;4798;41.574;23.734;2022-09-28T11:21:28;94378.63;;;32.16;30.96
9521;BME280;4798;41.574;23.734;2022-09-28T11:24:03;94334.13;;;32.41;30.10
9521;BME280;4798;41.574;23.734;2022-09-28T11:26:39;94384.19;;;33.31;31.13
9521;BME280;4798;41.574;23.734;2022-09-28T11:29:20;94390.63;;;32.83;30.10
9521;BME280;4798;41.574;23.734;2022-09-28T11:31:49;94369.28;;;32.46;31.39
9521;BME280;4798;41.574;23.734;2022-09-28T11:34:22;94373.50;;;33.20;30.92
9521;BME280;4798;41.574;23.734;2022-09-28T11:37:34;94377.16;;;32.89;31.25
9521;BME280;4798;41.574;23.734;2022-09-28T11:40:22;94383.28;;;33.21;30.57
9521;BME280;4798;41.574;23.734;2022-09-28T11:43:05;94375.38;;;32.53;30.44
9521;BME280;4798;41.574;23.734;2022-09-28T11:45:47;94322.78;;;31.62;30.32
9521;BME280;4798;41.574;23.734;2022-09-28T11:48:22;94332.88;;;32.13;31.88
9521;BME280;4798;41.574;23.734;2022-09-28T11:50:57;94369.47;;;33.38;31.92
9521;BME280;4798;41.574;23.734;2022-09-28T11:53:29;94363.81;;;33.03;30.55
9521;BME280;4798;41.574;23.734;2022-09-28T11:56:08;94365.50;;;32.97;31.75
9521;BME280;4798;41.574;23.734;2022-09-28T11:58:43;94362.94;;;33.06;30.73
9521;BME280;4798;41.574;23.734;2022-09-28T12:01:19;94360.47;;;32.67;31.22
9521;BME280;4798;41.574;23.734;2022-09-28T12:03:55;94322.00;;;32.83;31.06
9521;BME280;4798;41.574;23.734;2022-09-28T12:06:30;94372.53;;;33.40;31.44
9521;BME280;4798;41.574;23.734;2022-09-28T12:09:05;94370.75;;;32.92;30.81
9521;BME280;4798;41.574;23.734;2022-09-28T12:11:41;94251.94;;;32.09;31.51
9521;BME280;4798;41.574;23.734;2022-09-28T12:14:16;94362.09;;;32.93;31.09
9521;BME280;4798;41.574;23.734;2022-09-28T12:16:52;94361.44;;;31.48;33.53
9521;BME280;4798;41.574;23.734;2022-09-28T12:19:40;94365.44;;;32.11;31.72
9521;BME280;4798;41.574;23.734;2022-09-28T12:22:16;94369.34;;;32.42;30.55
9521;BME280;4798;41.574;23.734;2022-09-28T12:24:48;94355.03;;;32.51;29.99
9521;BME280;4798;41.574;23.734;2022-09-28T12:27:26;94356.56;;;31.55;32.04
9521;BME280;4798;41.574;23.734;2022-09-28T12:30:02;94346.94;;;31.99;31.21
9521;BME280;4798;41.574;23.734;2022-09-28T12:32:35;94363.06;;;31.09;32.46
9521;BME280;4798;41.574;23.734;2022-09-28T12:35:18;94369.97;;;31.33;31.99
9521;BME280;4798;41.574;23.734;2022-09-28T12:38:09;94364.44;;;32.50;30.45
9521;BME280;4798;41.574;23.734;2022-09-28T12:40:51;94356.25;;;31.53;31.69
9521;BME280;4798;41.574;23.734;2022-09-28T12:43:43;94374.22;;;30.99;31.98
9521;BME280;4798;41.574;23.734;2022-09-28T12:49:29;94380.06;;;30.58;31.63
9521;BME280;4798;41.574;23.734;2022-09-28T12:52:29;94375.81;;;31.16;32.27
9521;BME280;4798;41.574;23.734;2022-09-28T12:55:23;94373.00;;;31.00;32.65
9521;BME280;4798;41.574;23.734;2022-09-28T12:57:59;94376.34;;;30.91;33.13
9521;BME280;4798;41.574;23.734;2022-09-28T13:00:37;94335.28;;;30.91;33.76
9521;BME280;4798;41.574;23.734;2022-09-28T13:03:36;94323.91;;;30.30;33.93
9521;BME280;4798;41.574;23.734;2022-09-28T13:09:18;94371.13;;;31.16;33.14
9521;BME280;4798;41.574;23.734;2022-09-28T13:11:54;94369.56;;;31.15;32.87
9521;BME280;4798;41.574;23.734;2022-09-28T13:14:42;94356.44;;;30.48;33.54
9521;BME280;4798;41.574;23.734;2022-09-28T13:17:26;94329.09;;;30.25;33.98
9521;BME280;4798;41.574;23.734;2022-09-28T13:20:03;94368.41;;;30.54;33.76
9521;BME280;4798;41.574;23.734;2022-09-28T13:22:47;94376.22;;;30.75;34.45
9521;BME280;4798;41.574;23.734;2022-09-28T13:25:24;94371.88;;;30.77;33.98
9521;BME280;4798;41.574;23.734;2022-09-28T13:27:57;94378.91;;;31.18;33.83
9521;BME280;4798;41.574;23.734;2022-09-28T13:30:26;94367.22;;;30.55;34.28
9521;BME280;4798;41.574;23.734;2022-09-28T13:32:59;94368.97;;;29.99;34.94
9521;BME280;4798;41.574;23.734;2022-09-28T13:35:28;94378.00;;;28.82;36.58
9521;BME280;4798;41.574;23.734;2022-09-28T13:38:39;94382.41;;;29.90;35.29
9521;BME280;4798;41.574;23.734;2022-09-28T13:41:14;94381.19;;;29.07;36.69
9521;BME280;4798;41.574;23.734;2022-09-28T13:44:14;94397.78;;;29.50;37.42
9521;BME280;4798;41.574;23.734;2022-09-28T13:47:04;94370.00;;;29.32;37.73
9521;BME280;4798;41.574;23.734;2022-09-28T13:49:45;94323.81;;;29.14;37.03
9521;BME280;4798;41.574;23.734;2022-09-28T13:52:29;94248.63;;;28.53;37.14